QTR845 WMKK-OTHH
Flight info
| Callsign | QTR845 |
|---|---|
| Flight time | N/A |
| Altitude | 34000 |
| Route | IBUKU1D IBUKU Y504 GUNIP N571 IDASO P761 MMV P574 OPAMO/N0487F360 P574 TOTOX L555 TOLDA M628 TULBU N563 SODEX DCT UMIBU/N0471F340 P899 TOVOX |
| Aircraft | B77W/H-SDE1E2E3FGHIJ2J3J4J5M1RWXY/LB1D1 |
Departure
| Time | 2026-05-06 09:35 |
|---|---|
| Airport | Kuala Lumpur International Airport (WMKK) |
Arrival
| Time | N/A |
|---|---|
| Airport | Hamad International Airport (OTHH) |
| Time | Latitude | Longitude | Altitude | Speed | Heading |
|---|---|---|---|---|---|
| 2026-05-06 09:18 | 2.74599 | 101.71229 | 78 ft | 0 kts | 326° |
| 2026-05-06 09:27 | 2.74598 | 101.71230 | 77 ft | 2 kts | 326° |
| 2026-05-06 09:27 | 2.74580 | 101.71243 | 66 ft | 4 kts | 330° |
| 2026-05-06 09:27 | 2.74559 | 101.71251 | 66 ft | 4 kts | 2° |
| 2026-05-06 09:27 | 2.74545 | 101.71248 | 66 ft | 4 kts | 47° |
| 2026-05-06 09:28 | 2.74530 | 101.71227 | 66 ft | 4 kts | 60° |
| 2026-05-06 09:28 | 2.74524 | 101.71215 | 66 ft | 0 kts | 56° |
| 2026-05-06 09:30 | 2.74527 | 101.71221 | 66 ft | 4 kts | 56° |
| 2026-05-06 09:31 | 2.74553 | 101.71260 | 66 ft | 7 kts | 56° |
| 2026-05-06 09:31 | 2.74573 | 101.71306 | 73 ft | 7 kts | 92° |
| 2026-05-06 09:31 | 2.74546 | 101.71350 | 66 ft | 8 kts | 137° |
| 2026-05-06 09:31 | 2.74503 | 101.71381 | 68 ft | 8 kts | 144° |
| 2026-05-06 09:32 | 2.74460 | 101.71411 | 70 ft | 8 kts | 147° |
| 2026-05-06 09:32 | 2.74430 | 101.71431 | 69 ft | 9 kts | 146° |
| 2026-05-06 09:32 | 2.74379 | 101.71497 | 72 ft | 14 kts | 94° |
| 2026-05-06 09:32 | 2.74426 | 101.71580 | 66 ft | 14 kts | 55° |
| 2026-05-06 09:33 | 2.74490 | 101.71674 | 68 ft | 18 kts | 56° |
| 2026-05-06 09:33 | 2.74561 | 101.71777 | 70 ft | 18 kts | 56° |
| 2026-05-06 09:33 | 2.74629 | 101.71883 | 67 ft | 18 kts | 57° |
| 2026-05-06 09:33 | 2.74697 | 101.71988 | 87 ft | 18 kts | 57° |
| 2026-05-06 09:34 | 2.74770 | 101.72093 | 87 ft | 18 kts | 55° |
| 2026-05-06 09:34 | 2.74850 | 101.72176 | 87 ft | 13 kts | 13° |
| 2026-05-06 09:34 | 2.74921 | 101.72150 | 86 ft | 5 kts | 324° |
| 2026-05-06 09:34 | 2.74935 | 101.72140 | 87 ft | 11 kts | 324° |
| 2026-05-06 09:35 | 2.75164 | 101.71985 | 84 ft | 84 kts | 326° |
| 2026-05-06 09:35 | 2.75936 | 101.71468 | 85 ft | 181 kts | 326° |
| 2026-05-06 09:35 | 2.77129 | 101.70661 | 673 ft | 213 kts | 326° |
| 2026-05-06 09:35 | 2.78372 | 101.69831 | 2053 ft | 216 kts | 325° |
| 2026-05-06 09:36 | 2.79659 | 101.68987 | 2879 ft | 227 kts | 329° |
| 2026-05-06 09:36 | 2.81145 | 101.68470 | 3471 ft | 227 kts | 348° |
| 2026-05-06 09:36 | 2.82656 | 101.68026 | 4082 ft | 230 kts | 341° |
| 2026-05-06 09:36 | 2.84176 | 101.67454 | 4819 ft | 230 kts | 340° |
| 2026-05-06 09:37 | 2.85672 | 101.66891 | 5404 ft | 235 kts | 341° |
| 2026-05-06 09:37 | 2.87245 | 101.66312 | 5812 ft | 253 kts | 341° |
| 2026-05-06 09:37 | 2.88970 | 101.65683 | 6153 ft | 271 kts | 341° |
| 2026-05-06 09:37 | 2.90767 | 101.65033 | 6781 ft | 278 kts | 341° |
| 2026-05-06 09:38 | 2.92608 | 101.64379 | 7430 ft | 284 kts | 342° |
| 2026-05-06 09:38 | 2.94495 | 101.63731 | 8180 ft | 288 kts | 342° |
| 2026-05-06 09:38 | 2.96292 | 101.62846 | 8803 ft | 293 kts | 319° |
| 2026-05-06 09:38 | 2.97612 | 101.61285 | 9438 ft | 296 kts | 306° |
| 2026-05-06 09:39 | 2.98831 | 101.59600 | 10089 ft | 302 kts | 306° |
| 2026-05-06 09:39 | 3.00097 | 101.57850 | 10429 ft | 321 kts | 306° |
| 2026-05-06 09:39 | 3.01455 | 101.55977 | 10642 ft | 344 kts | 306° |
| 2026-05-06 09:39 | 3.02911 | 101.53975 | 10830 ft | 367 kts | 307° |
| 2026-05-06 09:40 | 3.04452 | 101.51864 | 11180 ft | 382 kts | 307° |
| 2026-05-06 09:40 | 3.06037 | 101.49694 | 11837 ft | 389 kts | 307° |
| 2026-05-06 09:40 | 3.09275 | 101.45272 | 13271 ft | 397 kts | 307° |
| 2026-05-06 09:41 | 3.10913 | 101.43038 | 14005 ft | 399 kts | 307° |
| 2026-05-06 09:41 | 3.12563 | 101.40787 | 14607 ft | 404 kts | 307° |
| 2026-05-06 09:41 | 3.14241 | 101.38499 | 15152 ft | 410 kts | 307° |
| 2026-05-06 09:41 | 3.15916 | 101.36216 | 15754 ft | 414 kts | 307° |
| 2026-05-06 09:42 | 3.17630 | 101.33885 | 16315 ft | 419 kts | 307° |
| 2026-05-06 09:42 | 3.19380 | 101.31523 | 16846 ft | 425 kts | 307° |
| 2026-05-06 09:42 | 3.21149 | 101.29142 | 17363 ft | 430 kts | 307° |
| 2026-05-06 09:42 | 3.22950 | 101.26720 | 17860 ft | 436 kts | 307° |
| 2026-05-06 09:43 | 3.24770 | 101.24270 | 18343 ft | 441 kts | 307° |
| 2026-05-06 09:43 | 3.26603 | 101.21801 | 18841 ft | 443 kts | 307° |
| 2026-05-06 09:43 | 3.28446 | 101.19316 | 19340 ft | 446 kts | 307° |
| 2026-05-06 09:43 | 3.30301 | 101.16814 | 19807 ft | 450 kts | 307° |
| 2026-05-06 09:44 | 3.32177 | 101.14283 | 20291 ft | 453 kts | 307° |
| 2026-05-06 09:44 | 3.34058 | 101.11745 | 20738 ft | 457 kts | 307° |
| 2026-05-06 09:44 | 3.35962 | 101.09176 | 21194 ft | 460 kts | 307° |
| 2026-05-06 09:44 | 3.37875 | 101.06595 | 21655 ft | 463 kts | 307° |
| 2026-05-06 09:45 | 3.39802 | 101.03995 | 22091 ft | 466 kts | 307° |
| 2026-05-06 09:45 | 3.41741 | 101.01377 | 22534 ft | 470 kts | 307° |
| 2026-05-06 09:45 | 3.43693 | 100.98743 | 22961 ft | 473 kts | 307° |
| 2026-05-06 09:45 | 3.45658 | 100.96090 | 23375 ft | 476 kts | 307° |
| 2026-05-06 09:46 | 3.47634 | 100.93423 | 23727 ft | 479 kts | 307° |
| 2026-05-06 09:46 | 3.49624 | 100.90736 | 24116 ft | 480 kts | 307° |
| 2026-05-06 09:46 | 3.51618 | 100.88044 | 24486 ft | 482 kts | 307° |
| 2026-05-06 09:46 | 3.53618 | 100.85342 | 24850 ft | 484 kts | 307° |
| 2026-05-06 09:47 | 3.55600 | 100.82664 | 25199 ft | 486 kts | 307° |
| 2026-05-06 09:47 | 3.57640 | 100.79909 | 25554 ft | 488 kts | 307° |
| 2026-05-06 09:47 | 3.59668 | 100.77170 | 25887 ft | 490 kts | 307° |
| 2026-05-06 09:47 | 3.61662 | 100.74453 | 26219 ft | 492 kts | 307° |
| 2026-05-06 09:48 | 3.63710 | 100.71642 | 26551 ft | 494 kts | 306° |
| 2026-05-06 09:48 | 3.65738 | 100.68849 | 26877 ft | 496 kts | 306° |
| 2026-05-06 09:48 | 3.67768 | 100.66051 | 27200 ft | 498 kts | 306° |
| 2026-05-06 09:48 | 3.69784 | 100.63274 | 27522 ft | 500 kts | 306° |
| 2026-05-06 09:49 | 3.71834 | 100.60452 | 27813 ft | 502 kts | 306° |
| 2026-05-06 09:49 | 3.73894 | 100.57620 | 28083 ft | 504 kts | 306° |
| 2026-05-06 09:49 | 3.75965 | 100.54773 | 28363 ft | 506 kts | 306° |
| 2026-05-06 09:49 | 3.78036 | 100.51926 | 28651 ft | 507 kts | 306° |
| 2026-05-06 09:50 | 3.80117 | 100.49066 | 28907 ft | 509 kts | 306° |
| 2026-05-06 09:50 | 3.82204 | 100.46196 | 29201 ft | 510 kts | 306° |
| 2026-05-06 09:50 | 3.84289 | 100.43330 | 29588 ft | 508 kts | 306° |
| 2026-05-06 09:50 | 3.86366 | 100.40474 | 30009 ft | 506 kts | 306° |
| 2026-05-06 09:51 | 3.88434 | 100.37630 | 30342 ft | 505 kts | 306° |
| 2026-05-06 09:51 | 3.90498 | 100.34792 | 30639 ft | 505 kts | 306° |
| 2026-05-06 09:51 | 3.92565 | 100.31948 | 30930 ft | 504 kts | 306° |
| 2026-05-06 09:51 | 3.94624 | 100.29116 | 31246 ft | 503 kts | 306° |
| 2026-05-06 09:52 | 3.96683 | 100.26283 | 31579 ft | 502 kts | 306° |
| 2026-05-06 09:52 | 3.98735 | 100.23459 | 31919 ft | 501 kts | 306° |